Terminal Aerodrome Forecast
Issued by NWS

Home | Current Version | Previous Version | Text Only | Print | Product List | Glossary Off
Versions: 1 2 3 4 5 6 7 8 9 10 11 12 13 14 15 16 17 18 19 20 21 22 23 24 25 26 27 28 29 30 31 32 33 34
000 FTUS41 KBOX 240901 AAB TAFACK TAF AMD KACK 240901Z 2409/2506 05008KT P6SM OVC006 FM241300 05007KT P6SM SCT015 FM241800 08009KT P6SM FEW130 FM242100 11009KT P6SM SKC=

USA.gov is the U.S. government's official web portal to all federal, state and local government web resources and services.